createdAt,value
2018-09-17T00:00:11.624Z,21.83
2018-09-17T00:01:11.633Z,21.79
2018-09-17T00:02:11.602Z,21.90
2018-09-17T00:03:11.591Z,21.81
2018-09-17T00:04:11.603Z,21.79
2018-09-17T00:05:11.570Z,21.78
2018-09-17T00:06:11.558Z,21.76
2018-09-17T00:07:11.554Z,21.79
2018-09-17T00:08:11.536Z,21.85
2018-09-17T00:09:11.547Z,21.82
2018-09-17T00:10:11.513Z,21.88
2018-09-17T00:11:11.503Z,21.81
2018-09-17T00:12:11.507Z,21.85
2018-09-17T00:13:11.482Z,21.79
2018-09-17T00:14:11.493Z,21.85
2018-09-17T00:15:11.459Z,21.85
2018-09-17T00:16:11.447Z,21.79
2018-09-17T00:17:11.434Z,21.79
2018-09-17T00:18:11.435Z,21.81
2018-09-17T00:19:11.433Z,21.83
2018-09-17T00:20:11.402Z,21.81
2018-09-17T00:21:11.390Z,21.81
2018-09-17T00:22:11.388Z,21.81
2018-09-17T00:23:11.368Z,21.78
2018-09-17T00:24:11.397Z,21.82
2018-09-17T00:25:11.346Z,21.81
2018-09-17T00:26:11.334Z,21.82
2018-09-17T00:27:11.324Z,21.82
2018-09-17T00:28:11.312Z,21.81
2018-09-17T00:29:11.321Z,21.81
2018-09-17T00:30:11.315Z,21.79
2018-09-17T00:31:11.295Z,21.81
2018-09-17T00:32:11.267Z,21.82
2018-09-17T00:33:11.260Z,21.78
2018-09-17T00:34:11.247Z,21.81
2018-09-17T00:35:11.254Z,21.81
2018-09-17T00:36:11.223Z,21.78
2018-09-17T00:37:11.224Z,21.79
2018-09-17T00:38:11.234Z,21.79
2018-09-17T00:39:11.189Z,21.79
2018-09-17T00:40:11.199Z,21.83
2018-09-17T00:41:11.168Z,21.81
2018-09-17T00:42:11.155Z,21.81
2018-09-17T00:43:11.152Z,21.82
2018-09-17T00:44:11.155Z,21.79
2018-09-17T00:45:11.143Z,21.82
2018-09-17T00:46:11.113Z,21.82
2018-09-17T00:47:11.101Z,21.79
2018-09-17T00:48:11.088Z,21.82
2018-09-17T00:49:11.100Z,21.78
2018-09-17T00:50:11.088Z,21.83
2018-09-17T00:51:11.054Z,21.76
2018-09-17T00:52:11.045Z,21.81
2018-09-17T00:53:11.033Z,21.78
2018-09-17T00:54:11.021Z,21.78
2018-09-17T00:55:11.043Z,21.79
2018-09-17T00:56:11.001Z,21.85
2018-09-17T00:57:10.989Z,21.78
2018-09-17T00:58:10.976Z,21.78
2018-09-17T00:59:10.965Z,21.78
2018-09-17T01:00:10.976Z,21.83
2018-09-17T01:01:10.957Z,21.78
2018-09-17T01:02:10.933Z,21.75
2018-09-17T01:03:10.922Z,21.75
2018-09-17T01:04:10.909Z,21.83
2018-09-17T01:05:10.919Z,21.79
2018-09-17T01:06:10.888Z,21.76
2018-09-17T01:07:10.890Z,21.83
2018-09-17T01:08:10.865Z,21.76
2018-09-17T01:09:10.854Z,21.78
2018-09-17T01:10:10.865Z,21.82
2018-09-17T01:11:10.831Z,21.83
2018-09-17T01:12:10.820Z,21.76
2018-09-17T01:13:10.821Z,21.79
2018-09-17T01:14:10.803Z,21.74
2018-09-17T01:15:10.808Z,21.78
2018-09-17T01:16:10.776Z,21.78
2018-09-17T01:17:10.765Z,21.75
2018-09-17T01:18:10.759Z,21.74
2018-09-17T01:19:10.753Z,21.72
2018-09-17T01:20:10.752Z,21.69
2018-09-17T01:21:10.720Z,21.76
2018-09-17T01:22:10.710Z,21.74
2018-09-17T01:23:10.697Z,21.71
2018-09-17T01:24:10.688Z,21.81
2018-09-17T01:25:10.711Z,21.72
2018-09-17T01:26:10.664Z,21.76
2018-09-17T01:27:10.652Z,21.74
2018-09-17T01:28:10.642Z,21.75
2018-09-17T01:29:10.636Z,21.74
2018-09-17T01:30:10.643Z,21.79
2018-09-17T01:31:10.621Z,21.74
2018-09-17T01:32:10.596Z,21.78
2018-09-17T01:33:10.590Z,21.76
2018-09-17T01:34:10.574Z,21.82
2018-09-17T01:35:10.585Z,21.79
2018-09-17T01:36:10.554Z,21.78
2018-09-17T01:37:10.550Z,21.66
2018-09-17T01:38:10.529Z,21.76
2018-09-17T01:39:10.518Z,21.78
2018-09-17T01:40:10.529Z,21.72
2018-09-17T01:41:10.496Z,21.75
2018-09-17T01:42:10.486Z,21.72
2018-09-17T01:43:10.485Z,21.72
2018-09-17T01:44:10.462Z,21.72
2018-09-17T01:45:10.473Z,21.72
2018-09-17T01:46:10.445Z,21.69
2018-09-17T01:47:10.429Z,21.71
2018-09-17T01:48:10.418Z,21.67
2018-09-17T01:49:10.426Z,21.71
2018-09-17T01:50:10.419Z,21.66
2018-09-17T01:51:10.385Z,21.67
2018-09-17T01:52:10.373Z,21.69
2018-09-17T01:53:10.363Z,21.74
2018-09-17T01:54:10.350Z,21.74
2018-09-17T01:55:10.374Z,21.67
2018-09-17T01:56:10.345Z,21.74
2018-09-17T01:57:10.317Z,21.74
2018-09-17T01:58:10.306Z,21.67
2018-09-17T01:59:10.296Z,21.74
2018-09-17T02:00:10.307Z,21.69
2018-09-17T02:01:10.273Z,21.71
2018-09-17T02:02:10.272Z,21.67
2018-09-17T02:03:10.251Z,21.66
2018-09-17T02:04:10.239Z,21.64
2018-09-17T02:05:10.249Z,21.64
2018-09-17T02:06:10.217Z,21.64
2018-09-17T02:07:10.206Z,21.71
2018-09-17T02:08:10.247Z,21.71
2018-09-17T02:09:10.218Z,21.71
2018-09-17T02:10:10.194Z,21.67
2018-09-17T02:11:10.182Z,21.72
2018-09-17T02:12:10.150Z,21.74
2018-09-17T02:13:10.139Z,21.74
2018-09-17T02:14:10.135Z,21.72
2018-09-17T02:15:10.117Z,21.64
2018-09-17T02:16:10.126Z,21.64
2018-09-17T02:17:10.094Z,21.69
2018-09-17T02:18:10.084Z,21.66
2018-09-17T02:19:10.073Z,21.71
2018-09-17T02:20:10.074Z,21.67
2018-09-17T02:21:10.071Z,21.69
2018-09-17T02:22:10.042Z,21.66
2018-09-17T02:23:10.028Z,21.67
2018-09-17T02:24:10.018Z,21.61
2018-09-17T02:25:10.026Z,21.69
2018-09-17T02:26:10.032Z,21.66
2018-09-17T02:27:09.984Z,21.67
2018-09-17T02:28:09.973Z,21.63
2018-09-17T02:29:09.961Z,21.69
2018-09-17T02:30:09.949Z,21.74
2018-09-17T02:31:09.960Z,21.64
2018-09-17T02:32:09.946Z,21.63
2018-09-17T02:33:09.915Z,21.71
2018-09-17T02:34:09.905Z,21.63
2018-09-17T02:35:09.915Z,21.64
2018-09-17T02:36:09.903Z,21.61
2018-09-17T02:37:09.872Z,21.59
2018-09-17T02:38:09.869Z,21.63
2018-09-17T02:39:09.850Z,21.61
2018-09-17T02:40:09.839Z,21.63
2018-09-17T02:41:09.849Z,21.71
2018-09-17T02:42:09.815Z,21.61
2018-09-17T02:43:09.805Z,21.64
2018-09-17T02:44:09.806Z,21.61
2018-09-17T02:45:09.783Z,21.63
2018-09-17T02:46:09.792Z,21.63
2018-09-17T02:47:09.760Z,21.63
2018-09-17T02:48:09.749Z,21.66
2018-09-17T02:49:09.737Z,21.67
2018-09-17T02:50:09.738Z,21.69
2018-09-17T02:51:09.736Z,21.67
2018-09-17T02:52:09.705Z,21.66
2018-09-17T02:53:09.693Z,21.57
2018-09-17T02:54:09.684Z,21.61
2018-09-17T02:55:09.670Z,21.63
2018-09-17T02:56:09.701Z,21.61
2018-09-17T02:57:09.649Z,21.59
2018-09-17T02:58:09.638Z,21.60
2018-09-17T02:59:09.627Z,21.59
2018-09-17T03:00:09.615Z,21.60
2018-09-17T03:01:09.624Z,21.59
2018-09-17T03:02:09.610Z,21.66
2018-09-17T03:03:09.581Z,21.64
2018-09-17T03:04:09.572Z,21.61
2018-09-17T03:05:09.586Z,21.61
2018-09-17T03:06:09.568Z,21.61
2018-09-17T03:07:09.536Z,21.63
2018-09-17T03:08:09.536Z,21.63
2018-09-17T03:09:09.514Z,21.60
2018-09-17T03:10:09.505Z,21.67
2018-09-17T03:11:09.512Z,21.61
2018-09-17T03:12:09.482Z,21.66
2018-09-17T03:13:09.469Z,21.60
2018-09-17T03:14:09.464Z,21.63
2018-09-17T03:15:09.447Z,21.60
2018-09-17T03:16:09.458Z,21.61
2018-09-17T03:17:09.424Z,21.64
2018-09-17T03:18:09.413Z,21.63
2018-09-17T03:19:09.402Z,21.57
2018-09-17T03:20:09.409Z,21.54
2018-09-17T03:21:09.402Z,21.60
2018-09-17T03:22:09.368Z,21.50
2018-09-17T03:23:09.357Z,21.61
2018-09-17T03:24:09.349Z,21.63
2018-09-17T03:25:09.336Z,21.53
2018-09-17T03:26:09.353Z,21.54
2018-09-17T03:27:09.321Z,21.63
2018-09-17T03:28:09.336Z,21.59
2018-09-17T03:29:09.292Z,21.63
2018-09-17T03:30:09.284Z,21.57
2018-09-17T03:31:09.291Z,21.56
2018-09-17T03:32:09.276Z,21.63
2018-09-17T03:33:09.249Z,21.61
2018-09-17T03:34:09.234Z,21.54
2018-09-17T03:35:09.223Z,21.60
2018-09-17T03:36:09.233Z,21.56
2018-09-17T03:37:09.205Z,21.54
2018-09-17T03:38:09.201Z,21.59
2018-09-17T03:39:09.179Z,21.60
2018-09-17T03:40:09.168Z,21.57
2018-09-17T03:41:09.179Z,21.54
2018-09-17T03:42:09.145Z,21.64
2018-09-17T03:43:09.133Z,21.66
2018-09-17T03:44:09.142Z,21.51
2018-09-17T03:45:09.112Z,21.56
2018-09-17T03:46:09.205Z,21.56
2018-09-17T03:47:09.090Z,21.64
2018-09-17T03:48:09.078Z,21.56
2018-09-17T03:49:09.066Z,21.56
2018-09-17T03:50:09.060Z,21.54
2018-09-17T03:51:09.065Z,21.61
2018-09-17T03:52:09.054Z,21.51
2018-09-17T03:53:09.022Z,21.54
2018-09-17T03:54:09.011Z,21.63
2018-09-17T03:55:09.000Z,21.56
2018-09-17T03:56:09.001Z,21.57
2018-09-17T03:57:09.000Z,21.54
2018-09-17T03:58:08.967Z,21.57
2018-09-17T03:59:08.955Z,21.56
2018-09-17T04:00:08.944Z,21.56
2018-09-17T04:01:08.935Z,21.51
2018-09-17T04:02:08.954Z,21.56
2018-09-17T04:03:08.912Z,21.56
2018-09-17T04:04:08.900Z,21.51
2018-09-17T04:05:08.889Z,21.57
2018-09-17T04:06:08.876Z,21.46
2018-09-17T04:07:08.890Z,21.56
2018-09-17T04:08:08.871Z,21.56
2018-09-17T04:09:08.848Z,21.56
2018-09-17T04:10:08.832Z,21.59
2018-09-17T04:11:08.823Z,21.54
2018-09-17T04:12:08.832Z,21.59
2018-09-17T04:13:08.800Z,21.54
2018-09-17T04:14:08.796Z,21.57
2018-09-17T04:15:08.777Z,21.53
2018-09-17T04:16:08.765Z,21.53
2018-09-17T04:17:08.775Z,21.60
2018-09-17T04:18:08.744Z,21.54
2018-09-17T04:19:08.733Z,21.59
2018-09-17T04:20:08.733Z,21.56
2018-09-17T04:21:08.712Z,21.56
2018-09-17T04:22:08.719Z,21.53
2018-09-17T04:23:08.687Z,21.56
2018-09-17T04:24:08.677Z,21.51
2018-09-17T04:25:08.665Z,21.50
2018-09-17T04:26:08.666Z,21.56
2018-09-17T04:27:08.663Z,21.54
2018-09-17T04:28:08.633Z,21.53
2018-09-17T04:29:08.626Z,21.50
2018-09-17T04:30:08.609Z,21.53
2018-09-17T04:31:08.598Z,21.57
2018-09-17T04:32:08.621Z,21.53
2018-09-17T04:33:08.635Z,21.56
2018-09-17T04:34:08.564Z,21.54
2018-09-17T04:35:08.554Z,21.53
2018-09-17T04:36:08.547Z,21.57
2018-09-17T04:37:08.553Z,21.51
2018-09-17T04:38:08.525Z,21.54
2018-09-17T04:39:08.508Z,21.56
2018-09-17T04:40:08.498Z,21.50
2018-09-17T04:41:08.529Z,21.54
2018-09-17T04:42:08.497Z,21.51
2018-09-17T04:43:08.466Z,21.54
2018-09-17T04:44:08.460Z,21.56
2018-09-17T04:45:08.441Z,21.51
2018-09-17T04:46:08.431Z,21.53
2018-09-17T04:47:08.442Z,21.54
2018-09-17T04:48:08.407Z,21.45
2018-09-17T04:49:08.397Z,21.50
2018-09-17T04:50:08.396Z,21.53
2018-09-17T04:51:08.381Z,21.50
2018-09-17T04:52:08.401Z,21.57
2018-09-17T04:53:08.353Z,21.46
2018-09-17T04:54:08.341Z,21.51
2018-09-17T04:55:08.330Z,21.51
2018-09-17T04:56:08.321Z,21.53
2018-09-17T04:57:08.329Z,21.51
2018-09-17T04:58:08.305Z,21.53
2018-09-17T04:59:08.284Z,21.44
2018-09-17T05:00:08.274Z,21.51
2018-09-17T05:01:08.263Z,21.51
2018-09-17T05:02:08.274Z,21.50
2018-09-17T05:03:08.243Z,21.45
2018-09-17T05:04:08.233Z,21.44
2018-09-17T05:05:08.226Z,21.50
2018-09-17T05:06:08.206Z,21.50
2018-09-17T05:07:08.221Z,21.44
2018-09-17T05:08:08.187Z,21.51
2018-09-17T05:09:08.181Z,21.48
2018-09-17T05:10:08.162Z,21.41
2018-09-17T05:11:08.157Z,21.24
2018-09-17T05:12:08.162Z,21.05
2018-09-17T05:13:08.241Z,20.74
2018-09-17T05:14:08.124Z,20.49
2018-09-17T05:15:08.107Z,20.28
2018-09-17T05:16:08.095Z,20.00
2018-09-17T05:17:08.125Z,19.86
2018-09-17T05:18:08.073Z,19.65
2018-09-17T05:19:08.061Z,19.50
2018-09-17T05:20:08.093Z,19.32
2018-09-17T05:21:08.041Z,19.11
2018-09-17T05:22:08.049Z,19.10
2018-09-17T05:23:08.018Z,18.94
2018-09-17T05:24:08.006Z,18.86
2018-09-17T05:25:08.066Z,18.77
2018-09-17T05:26:07.985Z,18.58
2018-09-17T05:27:07.997Z,18.67
2018-09-17T05:28:07.991Z,18.43
2018-09-17T05:29:07.949Z,18.39
2018-09-17T05:30:07.943Z,18.27
2018-09-17T05:31:07.986Z,18.15
2018-09-17T05:32:07.916Z,18.18
2018-09-17T05:33:07.923Z,18.07
2018-09-17T05:34:07.906Z,18.03
2018-09-17T05:35:07.958Z,18.00
2018-09-17T05:36:07.872Z,17.95
2018-09-17T05:37:07.862Z,17.95
2018-09-17T05:38:07.871Z,17.84
2018-09-17T05:39:07.843Z,17.94
2018-09-17T05:40:07.827Z,17.81
2018-09-17T05:41:07.830Z,17.79
2018-09-17T05:42:07.802Z,17.82
2018-09-17T05:43:07.823Z,17.78
2018-09-17T05:44:08.656Z,17.74
2018-09-17T05:45:07.771Z,17.71
2018-09-17T05:46:07.759Z,17.74
2018-09-17T05:47:07.779Z,17.73
2018-09-17T05:48:07.762Z,17.71
2018-09-17T05:49:07.724Z,17.69
2018-09-17T05:50:07.733Z,17.69
2018-09-17T05:51:07.702Z,17.74
2018-09-17T05:52:07.691Z,17.92
2018-09-17T05:53:07.704Z,17.92
2018-09-17T05:54:07.676Z,18.09
2018-09-17T05:55:07.657Z,18.27
2018-09-17T05:56:07.646Z,18.34
2018-09-17T05:57:07.634Z,18.49
2018-09-17T05:58:07.645Z,18.61
2018-09-17T05:59:07.614Z,18.72
2018-09-17T06:00:07.610Z,18.82
2018-09-17T06:01:07.591Z,18.99
2018-09-17T06:02:07.580Z,19.02
2018-09-17T06:03:07.611Z,19.06
2018-09-17T06:04:07.561Z,19.21
2018-09-17T06:05:07.547Z,19.24
2018-09-17T06:06:07.637Z,19.35
2018-09-17T06:07:07.698Z,19.38
2018-09-17T06:08:07.531Z,19.46
2018-09-17T06:09:07.500Z,19.51
2018-09-17T06:10:07.490Z,19.53
2018-09-17T06:11:07.561Z,19.61
2018-09-17T06:12:07.466Z,19.55
2018-09-17T06:13:07.505Z,19.68
2018-09-17T06:14:07.442Z,19.79
2018-09-17T06:15:07.433Z,19.79
2018-09-17T06:16:07.420Z,19.79
2018-09-17T06:17:07.410Z,19.87
2018-09-17T06:18:07.419Z,19.86
2018-09-17T06:19:07.410Z,19.90
2018-09-17T06:20:07.378Z,19.87
2018-09-17T06:21:07.364Z,19.91
2018-09-17T06:22:07.354Z,19.93
2018-09-17T06:23:07.373Z,20.05
2018-09-17T06:24:07.330Z,20.00
2018-09-17T06:25:07.352Z,20.06
2018-09-17T06:26:07.315Z,20.10
2018-09-17T06:27:07.296Z,20.15
2018-09-17T06:28:07.324Z,20.16
2018-09-17T06:29:07.274Z,20.12
2018-09-17T06:30:07.263Z,20.12
2018-09-17T06:31:07.250Z,20.23
2018-09-17T06:32:07.240Z,20.25
2018-09-17T06:33:07.256Z,20.30
2018-09-17T06:34:07.217Z,20.18
2018-09-17T06:35:07.206Z,20.31
2018-09-17T06:36:07.229Z,20.33
2018-09-17T06:37:07.184Z,20.35
2018-09-17T06:38:07.206Z,20.41
2018-09-17T06:39:07.169Z,20.39
2018-09-17T06:40:07.149Z,20.46
2018-09-17T06:41:07.146Z,20.46
2018-09-17T06:42:07.128Z,20.46
2018-09-17T06:43:07.138Z,20.49
2018-09-17T06:44:07.120Z,20.49
2018-09-17T06:45:07.095Z,20.30
2018-09-17T06:46:07.086Z,20.20
2018-09-17T06:47:07.071Z,20.03
2018-09-17T06:48:07.084Z,19.94
2018-09-17T06:49:07.056Z,19.84
2018-09-17T06:50:07.036Z,19.70
2018-09-17T06:51:07.027Z,19.60
2018-09-17T06:52:07.017Z,19.57
2018-09-17T06:53:07.025Z,19.48
2018-09-17T06:54:06.992Z,19.43
2018-09-17T06:55:06.990Z,19.32
2018-09-17T06:56:06.970Z,19.20
2018-09-17T06:57:06.958Z,18.84
2018-09-17T06:58:06.966Z,18.68
2018-09-17T06:59:06.934Z,18.46
2018-09-17T07:00:06.926Z,18.33
2018-09-17T07:01:06.921Z,18.19
2018-09-17T07:02:06.904Z,18.10
2018-09-17T07:03:06.912Z,17.92
2018-09-17T07:04:06.882Z,17.89
2018-09-17T07:05:06.872Z,17.85
2018-09-17T07:06:06.885Z,17.70
2018-09-17T07:07:06.862Z,17.54
2018-09-17T07:08:06.854Z,17.47
2018-09-17T07:09:06.823Z,17.55
2018-09-17T07:10:06.810Z,17.71
2018-09-17T07:11:06.800Z,17.82
2018-09-17T07:12:06.788Z,18.10
2018-09-17T07:13:06.882Z,18.21
2018-09-17T07:14:06.770Z,18.34
2018-09-17T07:15:06.758Z,18.54
2018-09-17T07:16:06.773Z,18.73
2018-09-17T07:17:06.740Z,18.90
2018-09-17T07:18:06.791Z,19.02
2018-09-17T07:19:06.738Z,19.05
2018-09-17T07:20:07.555Z,19.24
2018-09-17T07:21:06.687Z,19.23
2018-09-17T07:22:06.676Z,19.35
2018-09-17T07:23:06.669Z,19.47
2018-09-17T07:24:06.681Z,19.55
2018-09-17T07:25:06.648Z,19.58
2018-09-17T07:26:06.643Z,19.69
2018-09-17T07:27:06.620Z,19.68
2018-09-17T07:28:06.607Z,19.75
2018-09-17T07:29:06.621Z,19.83
2018-09-17T07:30:06.588Z,19.86
2018-09-17T07:31:06.575Z,19.91
2018-09-17T07:32:06.563Z,19.93
2018-09-17T07:33:06.553Z,20.02
2018-09-17T07:34:06.561Z,19.98
2018-09-17T07:35:06.529Z,19.93
2018-09-17T07:36:06.576Z,20.05
2018-09-17T07:37:06.510Z,20.02
2018-09-17T07:38:06.495Z,20.03
2018-09-17T07:39:06.503Z,20.00
2018-09-17T07:40:06.474Z,20.03
2018-09-17T07:41:06.504Z,20.10
2018-09-17T07:42:06.474Z,20.13
2018-09-17T07:43:06.483Z,20.20
2018-09-17T07:44:06.457Z,20.09
2018-09-17T07:45:06.429Z,20.23
2018-09-17T07:46:06.405Z,20.23
2018-09-17T07:47:06.395Z,20.30
2018-09-17T07:48:06.399Z,20.28
2018-09-17T07:49:06.390Z,20.27
2018-09-17T07:50:06.360Z,20.41
2018-09-17T07:51:06.350Z,20.33
2018-09-17T07:52:06.348Z,20.42
2018-09-17T07:53:06.330Z,20.38
2018-09-17T07:54:06.338Z,20.42
2018-09-17T07:55:06.302Z,20.43
2018-09-17T07:56:06.291Z,20.53
2018-09-17T07:57:06.279Z,20.51
2018-09-17T07:58:06.268Z,20.54
2018-09-17T07:59:06.292Z,20.53
2018-09-17T08:00:06.246Z,20.54
2018-09-17T08:01:06.235Z,20.61
2018-09-17T08:02:06.224Z,20.65
2018-09-17T08:03:06.218Z,20.68
2018-09-17T08:04:06.233Z,20.71
2018-09-17T08:05:06.189Z,20.69
2018-09-17T08:06:06.178Z,20.77
2018-09-17T08:07:06.167Z,20.81
2018-09-17T08:08:06.157Z,20.79
2018-09-17T08:09:06.169Z,20.79
2018-09-17T08:10:06.132Z,20.89
2018-09-17T08:11:06.124Z,20.93
2018-09-17T08:12:06.111Z,20.93
2018-09-17T08:13:06.143Z,20.93
2018-09-17T08:14:06.112Z,21.01
2018-09-17T08:15:06.084Z,20.91
2018-09-17T08:16:06.065Z,20.99
2018-09-17T08:17:06.113Z,20.96
2018-09-17T08:18:06.053Z,21.04
2018-09-17T08:19:06.052Z,21.11
2018-09-17T08:20:06.079Z,21.06
2018-09-17T08:21:06.010Z,21.09
2018-09-17T08:22:05.997Z,21.04
2018-09-17T08:23:05.987Z,21.08
2018-09-17T08:24:05.997Z,21.16
2018-09-17T08:25:05.964Z,21.09
2018-09-17T08:26:05.962Z,21.06
2018-09-17T08:27:05.942Z,21.14
2018-09-17T08:28:05.935Z,21.13
2018-09-17T08:29:05.942Z,21.13
2018-09-17T08:30:05.908Z,21.13
2018-09-17T08:31:05.900Z,21.21
2018-09-17T08:32:05.886Z,21.20
2018-09-17T08:33:05.881Z,21.20
2018-09-17T08:34:05.890Z,21.13
2018-09-17T08:35:05.852Z,21.19
2018-09-17T08:36:05.840Z,21.14
2018-09-17T08:37:05.829Z,21.13
2018-09-17T08:38:05.871Z,21.17
2018-09-17T08:39:05.828Z,21.20
2018-09-17T08:40:05.798Z,21.17
2018-09-17T08:41:05.786Z,21.20
2018-09-17T08:42:05.773Z,21.20
2018-09-17T08:43:05.762Z,21.26
2018-09-17T08:44:05.783Z,21.26
2018-09-17T08:45:05.739Z,21.27
2018-09-17T08:46:05.728Z,21.30
2018-09-17T08:47:05.717Z,21.34
2018-09-17T08:48:05.707Z,21.32
2018-09-17T08:49:05.716Z,21.38
2018-09-17T08:50:05.683Z,21.32
2018-09-17T08:51:05.672Z,21.44
2018-09-17T08:52:05.706Z,21.42
2018-09-17T08:53:05.715Z,21.38
2018-09-17T08:54:05.672Z,21.46
2018-09-17T08:55:05.627Z,21.35
2018-09-17T08:56:05.621Z,21.41
2018-09-17T08:57:05.604Z,21.48
2018-09-17T08:58:05.597Z,21.46
2018-09-17T08:59:05.584Z,21.44
2018-09-17T09:00:05.592Z,21.48
2018-09-17T09:01:05.565Z,21.46
2018-09-17T09:02:05.549Z,21.45
2018-09-17T09:03:05.538Z,21.50
2018-09-17T09:04:05.612Z,21.45
2018-09-17T09:05:05.591Z,21.48
2018-09-17T09:06:05.508Z,21.53
2018-09-17T09:07:05.494Z,21.54
2018-09-17T09:08:05.492Z,21.51
2018-09-17T09:09:05.471Z,21.56
2018-09-17T09:10:05.493Z,21.51
2018-09-17T09:11:05.449Z,21.57
2018-09-17T09:12:05.439Z,21.53
2018-09-17T09:13:05.425Z,21.60
2018-09-17T09:14:05.414Z,21.64
2018-09-17T09:15:05.429Z,21.67
2018-09-17T09:16:05.413Z,21.71
2018-09-17T09:17:05.383Z,21.72
2018-09-17T09:18:05.374Z,21.71
2018-09-17T09:19:05.362Z,21.66
2018-09-17T09:20:05.369Z,21.75
2018-09-17T09:21:05.340Z,21.76
2018-09-17T09:22:05.326Z,21.74
2018-09-17T09:23:05.315Z,21.71
2018-09-17T09:24:05.305Z,21.74
2018-09-17T09:25:05.315Z,21.75
2018-09-17T09:26:05.281Z,21.78
2018-09-17T09:27:05.275Z,21.78
2018-09-17T09:28:05.263Z,21.78
2018-09-17T09:29:05.248Z,21.83
2018-09-17T09:30:05.257Z,21.78
2018-09-17T09:31:05.225Z,21.75
2018-09-17T09:32:05.214Z,21.88
2018-09-17T09:33:05.209Z,21.83
2018-09-17T09:34:05.192Z,21.82
2018-09-17T09:35:05.200Z,21.82
2018-09-17T09:36:05.176Z,21.85
2018-09-17T09:37:05.159Z,21.91
2018-09-17T09:38:05.172Z,21.90
2018-09-17T09:39:05.136Z,21.83
2018-09-17T09:40:05.149Z,21.91
2018-09-17T09:41:05.132Z,21.92
2018-09-17T09:42:05.103Z,21.90
2018-09-17T09:43:05.099Z,21.91
2018-09-17T09:44:05.080Z,21.91
2018-09-17T09:45:05.090Z,21.83
2018-09-17T09:46:05.059Z,21.76
2018-09-17T09:47:05.054Z,21.88
2018-09-17T09:48:05.037Z,21.78
2018-09-17T09:49:05.024Z,21.92
2018-09-17T09:50:05.034Z,21.94
2018-09-17T09:51:05.008Z,21.91
2018-09-17T09:52:04.990Z,21.79
2018-09-17T09:53:04.981Z,21.91
2018-09-17T09:54:04.977Z,21.99
2018-09-17T09:55:04.988Z,21.97
2018-09-17T09:56:04.946Z,21.94
2018-09-17T09:57:04.950Z,21.95
2018-09-17T09:58:04.924Z,21.97
2018-09-17T09:59:04.913Z,21.92
2018-09-17T10:00:04.927Z,21.92
2018-09-17T10:01:04.906Z,21.99
2018-09-17T10:02:04.879Z,21.95
2018-09-17T10:03:04.893Z,21.91
2018-09-17T10:04:04.855Z,21.90
2018-09-17T10:05:04.868Z,21.98
2018-09-17T10:06:04.842Z,21.92
2018-09-17T10:07:04.823Z,21.98
2018-09-17T10:08:04.816Z,21.94
2018-09-17T10:09:04.801Z,21.94
2018-09-17T10:10:04.816Z,21.92
2018-09-17T10:11:04.778Z,21.99
2018-09-17T10:12:04.770Z,21.88
2018-09-17T10:13:04.755Z,21.95
2018-09-17T10:14:04.790Z,21.99
2018-09-17T10:15:04.754Z,21.99
2018-09-17T10:16:04.725Z,21.95
2018-09-17T10:17:04.716Z,21.99
2018-09-17T10:18:04.701Z,21.97
2018-09-17T10:19:04.690Z,22.04
2018-09-17T10:20:04.698Z,21.99
2018-09-17T10:21:04.667Z,21.97
2018-09-17T10:22:04.655Z,21.99
2018-09-17T10:23:04.646Z,21.94
2018-09-17T10:24:04.633Z,21.95
2018-09-17T10:25:04.642Z,22.01
2018-09-17T10:26:04.610Z,22.04
2018-09-17T10:27:04.599Z,21.99
2018-09-17T10:28:04.589Z,21.88
2018-09-17T10:29:04.577Z,21.92
2018-09-17T10:30:04.591Z,21.98
2018-09-17T10:31:04.599Z,21.92
2018-09-17T10:32:04.543Z,21.99
2018-09-17T10:33:04.538Z,21.95
2018-09-17T10:34:04.521Z,21.97
2018-09-17T10:35:04.561Z,22.06
2018-09-17T10:36:04.503Z,22.02
2018-09-17T10:37:04.488Z,21.98
2018-09-17T10:38:04.476Z,21.98
2018-09-17T10:39:04.499Z,22.01
2018-09-17T10:40:04.454Z,22.07
2018-09-17T10:41:04.465Z,22.01
2018-09-17T10:42:04.432Z,21.98
2018-09-17T10:43:04.421Z,22.01
2018-09-17T10:44:04.410Z,22.07
2018-09-17T10:45:04.403Z,21.98
2018-09-17T10:46:04.413Z,22.04
2018-09-17T10:47:04.499Z,22.01
2018-09-17T10:48:04.368Z,21.98
2018-09-17T10:49:04.354Z,22.04
2018-09-17T10:50:04.343Z,22.01
2018-09-17T10:51:04.351Z,22.01
2018-09-17T10:52:04.322Z,22.01
2018-09-17T10:53:04.310Z,21.97
2018-09-17T10:54:04.298Z,22.06
2018-09-17T10:55:04.287Z,22.01
2018-09-17T10:56:04.296Z,21.98
2018-09-17T10:57:04.266Z,22.02
2018-09-17T10:58:04.255Z,22.02
2018-09-17T10:59:04.242Z,22.02
2018-09-17T11:00:04.231Z,22.04
2018-09-17T11:01:04.241Z,22.06
2018-09-17T11:02:04.209Z,21.99
2018-09-17T11:03:04.198Z,22.06
2018-09-17T11:04:04.187Z,21.98
2018-09-17T11:05:04.176Z,22.04
2018-09-17T11:06:04.186Z,21.94
2018-09-17T11:07:04.156Z,21.99
2018-09-17T11:08:04.149Z,21.98
2018-09-17T11:09:04.133Z,22.09
2018-09-17T11:10:04.121Z,22.06
2018-09-17T11:11:04.129Z,22.04
2018-09-17T11:12:04.098Z,22.09
2018-09-17T11:13:04.092Z,22.07
2018-09-17T11:14:04.076Z,22.07
2018-09-17T11:15:04.069Z,22.06
2018-09-17T11:16:04.078Z,22.07
2018-09-17T11:17:04.042Z,22.09
2018-09-17T11:18:04.046Z,22.10
2018-09-17T11:19:04.024Z,22.10
2018-09-17T11:20:04.009Z,22.17
2018-09-17T11:21:04.035Z,22.16
2018-09-17T11:22:03.987Z,22.12
2018-09-17T11:23:03.987Z,22.10
2018-09-17T11:24:03.963Z,22.17
2018-09-17T11:25:03.977Z,22.14
2018-09-17T11:26:03.963Z,22.13
2018-09-17T11:27:03.934Z,22.14
2018-09-17T11:28:03.930Z,22.14
2018-09-17T11:29:03.908Z,22.17
2018-09-17T11:30:03.898Z,22.16
2018-09-17T11:31:03.908Z,22.17
2018-09-17T11:32:03.906Z,22.17
2018-09-17T11:33:03.864Z,22.20
2018-09-17T11:34:03.866Z,22.23
2018-09-17T11:35:03.845Z,22.28
2018-09-17T11:36:03.830Z,22.16
2018-09-17T11:37:03.840Z,22.22
2018-09-17T11:38:03.808Z,22.23
2018-09-17T11:39:03.805Z,22.34
2018-09-17T11:40:03.786Z,22.13
2018-09-17T11:41:03.823Z,22.27
2018-09-17T11:42:03.784Z,22.27
2018-09-17T11:43:03.755Z,22.22
2018-09-17T11:44:03.741Z,22.32
2018-09-17T11:45:03.760Z,22.34
2018-09-17T11:46:03.741Z,22.31
2018-09-17T11:47:03.732Z,22.34
2018-09-17T11:48:03.745Z,22.38
2018-09-17T11:49:03.686Z,22.35
2018-09-17T11:50:03.674Z,22.35
2018-09-17T11:51:03.684Z,22.54
2018-09-17T11:52:03.652Z,22.46
2018-09-17T11:53:03.641Z,22.47
2018-09-17T11:54:03.666Z,22.46
2018-09-17T11:55:03.637Z,22.57
2018-09-17T11:56:03.634Z,22.47
2018-09-17T11:57:03.620Z,22.53
2018-09-17T11:58:03.585Z,22.53
2018-09-17T11:59:03.573Z,22.57
2018-09-17T12:00:03.566Z,22.56
2018-09-17T12:01:03.573Z,22.57
2018-09-17T12:02:03.545Z,22.56
2018-09-17T12:03:03.530Z,22.56
2018-09-17T12:04:03.518Z,22.62
2018-09-17T12:05:03.519Z,22.57
2018-09-17T12:06:03.521Z,22.68
2018-09-17T12:07:03.486Z,22.69
2018-09-17T12:08:03.474Z,22.67
2018-09-17T12:09:03.464Z,22.65
2018-09-17T12:10:03.452Z,22.64
2018-09-17T12:11:03.481Z,22.74
2018-09-17T12:12:03.430Z,22.71
2018-09-17T12:13:03.420Z,22.67
2018-09-17T12:14:03.407Z,22.69
2018-09-17T12:15:03.399Z,22.69
2018-09-17T12:16:03.406Z,22.71
2018-09-17T12:17:03.380Z,22.72
2018-09-17T12:18:03.362Z,22.75
2018-09-17T12:19:03.354Z,22.83
2018-09-17T12:20:03.343Z,22.80
2018-09-17T12:21:03.350Z,22.82
2018-09-17T12:22:03.318Z,22.84
2018-09-17T12:23:03.319Z,22.83
2018-09-17T12:24:03.380Z,22.84
2018-09-17T12:25:03.285Z,22.75
2018-09-17T12:26:03.297Z,22.87
2018-09-17T12:27:03.264Z,22.84
2018-09-17T12:28:03.252Z,22.77
2018-09-17T12:29:03.317Z,22.74
2018-09-17T12:30:03.229Z,22.82
2018-09-17T12:31:03.252Z,22.80
2018-09-17T12:32:03.243Z,22.82
2018-09-17T12:33:03.197Z,22.80
2018-09-17T12:34:03.258Z,22.87
2018-09-17T12:35:03.175Z,22.68
2018-09-17T12:36:03.813Z,22.78
2018-09-17T12:37:03.189Z,22.69
2018-09-17T12:38:03.143Z,22.80
2018-09-17T12:39:03.131Z,22.84
2018-09-17T12:40:03.123Z,22.80
2018-09-17T12:41:03.108Z,22.82
2018-09-17T12:42:03.121Z,22.82
2018-09-17T12:43:03.097Z,22.80
2018-09-17T12:44:03.076Z,22.80
2018-09-17T12:45:03.062Z,22.84
2018-09-17T12:46:03.054Z,22.77
2018-09-17T12:47:03.060Z,22.83
2018-09-17T12:48:03.059Z,22.84
2018-09-17T12:49:03.016Z,22.82
2018-09-17T12:50:03.006Z,22.86
2018-09-17T12:51:03.005Z,22.90
2018-09-17T12:52:03.004Z,22.96